עמוד ראשי
METAR-TAF:

METAR-TAF

שדות תעופה :

Puerto Cabezas, ניקרגואה

קו רוחב: 14-03N, קו אורך: 083-22W, גובה: 20מטר

תצפית מזג אוויר נוכחית

הדו"ח נערך לפני 7 שעות ו 18דקות, בשעה 23:00 UTC
רוח 6קשר מכיוון מזרח
טמפרטורת 31 צלסיוס
לחות 75%
לחץ 1008 hPa
ראות: 7000מטר
עננים פזורים בגובה 1600רגל
אובך,

METAR: MNPC 192300Z 09006KT 7000 SCT016 31/26 Q1008 HZ

זמן: 00:18 (06:18 UTC)

תחזית

הדו"ח נערך לפני 9 שעות ו 3דקות, בשעה 21:15 UTC
תחזית בתוקף מ 20 ב 00 UTC עד 20 ב 24 UTC
רוח 10קשר מכיוון מזרח
ראות: 7000מטר
עננים פזורים בגובה 1600רגל
אובך
זמנית מ -
20 ב 05 UTC עד 20 ב 10 UTC
רוח 6קשר מכיוון צפון-מזרח
עננים בינוניים בגובה 1600רגל

TAF: MNPC 192115Z 2000/2024 08010KT 7000 HZ SCT016 TEMPO 2005/2010 05006KT BKN016

תצפיות ותחזיות מזג אוויר לגבי יותר מ- 4,000 שדות תעופה ברחבי העולם. דוחות METAR ו- TAF.

התחנות הזמינות מסומנות בנקודות צהובות ואדומות על גבי המפה.

העבר את העכבר לנקודה הצבעונית על מנת לראות את שם התחנה.

לאחר מכן, לחץ כדי לראות את תוכן ואת תחזיות מזג האוויר.

כדי לשנות את המפה: לחץ על הכפתורים הירוקים עם הפלוס השחור כדי להתקרב; על הכפתור הירוק עם המקף כדי להתרחק; או בחיצים הירוקים למפות סמוכות.


METAR-TAF: